sensor_id;sensor_type;location;lat;lon;timestamp;temperature;humidity
38359;DHT22;42072;48.044;14.416;2023-07-22T00:00:49;18.10;99.90
38359;DHT22;42072;48.044;14.416;2023-07-22T00:03:16;18.20;99.90
38359;DHT22;42072;48.044;14.416;2023-07-22T00:05:44;18.20;99.90
38359;DHT22;42072;48.044;14.416;2023-07-22T00:08:11;18.30;99.90
38359;DHT22;42072;48.044;14.416;2023-07-22T00:10:42;18.30;99.90
38359;DHT22;42072;48.044;14.416;2023-07-22T00:13:09;18.40;99.90
38359;DHT22;42072;48.044;14.416;2023-07-22T00:15:36;18.40;99.90
38359;DHT22;42072;48.044;14.416;2023-07-22T00:18:03;18.40;99.90
38359;DHT22;42072;48.044;14.416;2023-07-22T00:20:31;18.50;99.90
38359;DHT22;42072;48.044;14.416;2023-07-22T00:22:58;18.50;99.90
38359;DHT22;42072;48.044;14.416;2023-07-22T00:25:25;18.50;99.90
38359;DHT22;42072;48.044;14.416;2023-07-22T00:27:52;18.50;99.90
38359;DHT22;42072;48.044;14.416;2023-07-22T00:30:19;18.50;99.90
38359;DHT22;42072;48.044;14.416;2023-07-22T00:32:47;18.60;99.90
38359;DHT22;42072;48.044;14.416;2023-07-22T00:35:14;18.60;99.90
38359;DHT22;42072;48.044;14.416;2023-07-22T00:37:41;18.60;99.90
38359;DHT22;42072;48.044;14.416;2023-07-22T00:40:08;18.60;99.90
38359;DHT22;42072;48.044;14.416;2023-07-22T00:42:39;18.60;99.90
38359;DHT22;42072;48.044;14.416;2023-07-22T00:45:07;18.70;99.90
38359;DHT22;42072;48.044;14.416;2023-07-22T00:47:35;18.70;99.90
38359;DHT22;42072;48.044;14.416;2023-07-22T00:50:03;18.70;99.90
38359;DHT22;42072;48.044;14.416;2023-07-22T00:52:30;18.70;99.90
38359;DHT22;42072;48.044;14.416;2023-07-22T00:54:58;18.70;99.90
38359;DHT22;42072;48.044;14.416;2023-07-22T00:57:26;18.70;99.90
38359;DHT22;42072;48.044;14.416;2023-07-22T00:59:54;18.70;99.90
38359;DHT22;42072;48.044;14.416;2023-07-22T01:02:22;18.70;99.90
38359;DHT22;42072;48.044;14.416;2023-07-22T01:04:50;18.70;99.90
38359;DHT22;42072;48.044;14.416;2023-07-22T01:07:19;18.70;99.90
38359;DHT22;42072;48.044;14.416;2023-07-22T01:09:46;18.70;99.90
38359;DHT22;42072;48.044;14.416;2023-07-22T01:12:13;18.70;99.90
38359;DHT22;42072;48.044;14.416;2023-07-22T01:14:41;18.70;99.90
38359;DHT22;42072;48.044;14.416;2023-07-22T01:17:10;18.70;99.90
38359;DHT22;42072;48.044;14.416;2023-07-22T01:19:38;18.70;99.90
38359;DHT22;42072;48.044;14.416;2023-07-22T01:22:06;18.70;99.90
38359;DHT22;42072;48.044;14.416;2023-07-22T01:24:35;18.70;99.90
38359;DHT22;42072;48.044;14.416;2023-07-22T01:27:03;18.70;99.90
38359;DHT22;42072;48.044;14.416;2023-07-22T01:29:31;18.70;99.90
38359;DHT22;42072;48.044;14.416;2023-07-22T01:31:58;18.60;99.90
38359;DHT22;42072;48.044;14.416;2023-07-22T01:34:26;18.70;99.90
38359;DHT22;42072;48.044;14.416;2023-07-22T01:36:53;18.60;99.90
38359;DHT22;42072;48.044;14.416;2023-07-22T01:39:20;18.60;99.90
38359;DHT22;42072;48.044;14.416;2023-07-22T01:41:49;18.60;99.90
38359;DHT22;42072;48.044;14.416;2023-07-22T01:44:16;18.50;99.90
38359;DHT22;42072;48.044;14.416;2023-07-22T01:46:43;18.50;99.90
38359;DHT22;42072;48.044;14.416;2023-07-22T01:49:11;18.60;99.90
38359;DHT22;42072;48.044;14.416;2023-07-22T01:51:39;18.50;99.90
38359;DHT22;42072;48.044;14.416;2023-07-22T01:54:10;18.50;99.90
38359;DHT22;42072;48.044;14.416;2023-07-22T01:56:38;18.50;99.90
38359;DHT22;42072;48.044;14.416;2023-07-22T01:59:05;18.50;99.90
38359;DHT22;42072;48.044;14.416;2023-07-22T02:01:33;18.50;99.90
38359;DHT22;42072;48.044;14.416;2023-07-22T02:04:00;18.50;99.90
38359;DHT22;42072;48.044;14.416;2023-07-22T02:06:27;18.50;99.90
38359;DHT22;42072;48.044;14.416;2023-07-22T02:08:56;18.50;99.90
38359;DHT22;42072;48.044;14.416;2023-07-22T02:11:23;18.40;99.90
38359;DHT22;42072;48.044;14.416;2023-07-22T02:13:50;18.40;99.90
38359;DHT22;42072;48.044;14.416;2023-07-22T02:16:18;18.40;99.90
38359;DHT22;42072;48.044;14.416;2023-07-22T02:18:46;18.30;99.90
38359;DHT22;42072;48.044;14.416;2023-07-22T02:21:14;18.40;99.90
38359;DHT22;42072;48.044;14.416;2023-07-22T02:23:41;18.30;99.90
38359;DHT22;42072;48.044;14.416;2023-07-22T02:26:08;18.30;99.90
38359;DHT22;42072;48.044;14.416;2023-07-22T02:28:35;18.20;99.90
38359;DHT22;42072;48.044;14.416;2023-07-22T02:31:03;18.10;99.90
38359;DHT22;42072;48.044;14.416;2023-07-22T02:33:34;18.00;99.90
38359;DHT22;42072;48.044;14.416;2023-07-22T02:36:02;18.00;99.90
38359;DHT22;42072;48.044;14.416;2023-07-22T02:38:29;18.00;99.90
38359;DHT22;42072;48.044;14.416;2023-07-22T02:41:02;18.00;99.90
38359;DHT22;42072;48.044;14.416;2023-07-22T02:43:30;18.00;99.90
38359;DHT22;42072;48.044;14.416;2023-07-22T02:45:57;18.00;99.90
38359;DHT22;42072;48.044;14.416;2023-07-22T02:48:24;18.10;99.90
38359;DHT22;42072;48.044;14.416;2023-07-22T02:50:51;18.00;99.90
38359;DHT22;42072;48.044;14.416;2023-07-22T02:53:18;18.00;99.90
38359;DHT22;42072;48.044;14.416;2023-07-22T02:55:46;18.00;99.90
38359;DHT22;42072;48.044;14.416;2023-07-22T02:58:13;18.00;99.90
38359;DHT22;42072;48.044;14.416;2023-07-22T03:00:40;18.00;99.90
38359;DHT22;42072;48.044;14.416;2023-07-22T03:03:07;18.00;99.90
38359;DHT22;42072;48.044;14.416;2023-07-22T03:05:35;18.10;99.90
38359;DHT22;42072;48.044;14.416;2023-07-22T03:08:02;18.00;99.90
38359;DHT22;42072;48.044;14.416;2023-07-22T03:10:29;18.00;99.90
38359;DHT22;42072;48.044;14.416;2023-07-22T03:12:57;18.00;99.90
38359;DHT22;42072;48.044;14.416;2023-07-22T03:15:24;17.90;99.90
38359;DHT22;42072;48.044;14.416;2023-07-22T03:17:54;18.00;99.90
38359;DHT22;42072;48.044;14.416;2023-07-22T03:20:26;17.90;99.90
38359;DHT22;42072;48.044;14.416;2023-07-22T03:22:53;17.90;99.90
38359;DHT22;42072;48.044;14.416;2023-07-22T03:25:21;17.80;99.90
38359;DHT22;42072;48.044;14.416;2023-07-22T03:27:48;17.70;99.90
38359;DHT22;42072;48.044;14.416;2023-07-22T03:30:17;17.60;99.90
38359;DHT22;42072;48.044;14.416;2023-07-22T03:32:47;17.60;99.90
38359;DHT22;42072;48.044;14.416;2023-07-22T03:35:15;17.50;99.90
38359;DHT22;42072;48.044;14.416;2023-07-22T03:37:42;17.40;99.90
38359;DHT22;42072;48.044;14.416;2023-07-22T03:40:10;17.40;99.90
38359;DHT22;42072;48.044;14.416;2023-07-22T03:42:51;17.30;99.90
38359;DHT22;42072;48.044;14.416;2023-07-22T03:45:20;17.20;99.90
38359;DHT22;42072;48.044;14.416;2023-07-22T03:47:51;17.20;99.90
38359;DHT22;42072;48.044;14.416;2023-07-22T03:50:19;17.20;99.90
38359;DHT22;42072;48.044;14.416;2023-07-22T03:52:46;17.20;99.90
38359;DHT22;42072;48.044;14.416;2023-07-22T03:55:13;17.10;99.90
38359;DHT22;42072;48.044;14.416;2023-07-22T03:57:40;17.20;99.90
38359;DHT22;42072;48.044;14.416;2023-07-22T04:00:07;17.20;99.90
38359;DHT22;42072;48.044;14.416;2023-07-22T04:02:36;17.20;99.90
38359;DHT22;42072;48.044;14.416;2023-07-22T04:05:04;17.40;99.90
38359;DHT22;42072;48.044;14.416;2023-07-22T04:07:31;17.50;99.90
38359;DHT22;42072;48.044;14.416;2023-07-22T04:09:58;17.50;99.90
38359;DHT22;42072;48.044;14.416;2023-07-22T04:12:25;17.60;99.90
38359;DHT22;42072;48.044;14.416;2023-07-22T04:14:52;17.70;99.90
38359;DHT22;42072;48.044;14.416;2023-07-22T04:17:19;17.80;99.90
38359;DHT22;42072;48.044;14.416;2023-07-22T04:19:46;17.80;99.90
38359;DHT22;42072;48.044;14.416;2023-07-22T04:22:13;17.90;99.90
38359;DHT22;42072;48.044;14.416;2023-07-22T04:24:41;18.00;99.90
38359;DHT22;42072;48.044;14.416;2023-07-22T04:27:08;18.10;99.90
38359;DHT22;42072;48.044;14.416;2023-07-22T04:29:35;18.20;99.90
38359;DHT22;42072;48.044;14.416;2023-07-22T04:32:03;18.40;99.90
38359;DHT22;42072;48.044;14.416;2023-07-22T04:34:31;18.60;99.90
38359;DHT22;42072;48.044;14.416;2023-07-22T04:36:59;18.80;99.90
38359;DHT22;42072;48.044;14.416;2023-07-22T04:39:26;19.20;99.90
38359;DHT22;42072;48.044;14.416;2023-07-22T04:41:53;20.60;99.90
38359;DHT22;42072;48.044;14.416;2023-07-22T04:44:20;21.60;99.90
38359;DHT22;42072;48.044;14.416;2023-07-22T04:46:47;23.00;99.90
38359;DHT22;42072;48.044;14.416;2023-07-22T04:49:14;22.80;99.90
38359;DHT22;42072;48.044;14.416;2023-07-22T04:51:48;21.90;99.90
38359;DHT22;42072;48.044;14.416;2023-07-22T04:54:17;21.70;99.90
38359;DHT22;42072;48.044;14.416;2023-07-22T04:56:45;22.50;99.90
38359;DHT22;42072;48.044;14.416;2023-07-22T04:59:12;22.40;99.90
38359;DHT22;42072;48.044;14.416;2023-07-22T05:01:41;21.60;99.90
38359;DHT22;42072;48.044;14.416;2023-07-22T05:04:10;21.00;99.90
38359;DHT22;42072;48.044;14.416;2023-07-22T05:06:37;21.60;99.90
38359;DHT22;42072;48.044;14.416;2023-07-22T05:09:04;22.30;99.90
38359;DHT22;42072;48.044;14.416;2023-07-22T05:11:31;23.10;99.90
38359;DHT22;42072;48.044;14.416;2023-07-22T05:13:59;23.10;99.90
38359;DHT22;42072;48.044;14.416;2023-07-22T05:16:27;23.70;91.20
38359;DHT22;42072;48.044;14.416;2023-07-22T05:18:55;23.00;96.30
38359;DHT22;42072;48.044;14.416;2023-07-22T05:21:22;24.00;91.40
38359;DHT22;42072;48.044;14.416;2023-07-22T05:23:49;23.20;91.60
38359;DHT22;42072;48.044;14.416;2023-07-22T05:26:16;25.30;65.00
38359;DHT22;42072;48.044;14.416;2023-07-22T05:28:43;26.70;29.40
38359;DHT22;42072;48.044;14.416;2023-07-22T05:31:10;25.10;40.50
38359;DHT22;42072;48.044;14.416;2023-07-22T05:33:37;25.20;50.50
38359;DHT22;42072;48.044;14.416;2023-07-22T05:36:05;27.60;20.50
38359;DHT22;42072;48.044;14.416;2023-07-22T05:38:32;26.90;13.00
38359;DHT22;42072;48.044;14.416;2023-07-22T05:40:59;27.30;14.10
38359;DHT22;42072;48.044;14.416;2023-07-22T05:43:27;27.00;11.20
38359;DHT22;42072;48.044;14.416;2023-07-22T05:45:54;27.60;8.10
38359;DHT22;42072;48.044;14.416;2023-07-22T05:48:21;27.70;4.20
38359;DHT22;42072;48.044;14.416;2023-07-22T05:50:48;27.30;5.10
38359;DHT22;42072;48.044;14.416;2023-07-22T05:53:16;26.90;9.70
38359;DHT22;42072;48.044;14.416;2023-07-22T05:55:43;27.40;6.30
38359;DHT22;42072;48.044;14.416;2023-07-22T05:58:17;27.90;3.60
38359;DHT22;42072;48.044;14.416;2023-07-22T06:00:45;28.30;1.00
38359;DHT22;42072;48.044;14.416;2023-07-22T06:03:13;26.80;3.20
38359;DHT22;42072;48.044;14.416;2023-07-22T06:05:41;25.20;17.30
38359;DHT22;42072;48.044;14.416;2023-07-22T06:08:08;24.40;29.60
38359;DHT22;42072;48.044;14.416;2023-07-22T06:10:35;25.20;37.40
38359;DHT22;42072;48.044;14.416;2023-07-22T06:13:05;25.20;35.50
38359;DHT22;42072;48.044;14.416;2023-07-22T06:15:32;24.90;38.00
38359;DHT22;42072;48.044;14.416;2023-07-22T06:18:00;24.20;47.70
38359;DHT22;42072;48.044;14.416;2023-07-22T06:20:28;24.00;57.80
38359;DHT22;42072;48.044;14.416;2023-07-22T06:22:56;23.70;71.60
38359;DHT22;42072;48.044;14.416;2023-07-22T06:25:23;23.20;85.10
38359;DHT22;42072;48.044;14.416;2023-07-22T06:27:50;23.10;92.00
38359;DHT22;42072;48.044;14.416;2023-07-22T06:30:17;22.60;98.20
38359;DHT22;42072;48.044;14.416;2023-07-22T06:32:44;22.10;99.90
38359;DHT22;42072;48.044;14.416;2023-07-22T06:35:11;21.70;99.90
38359;DHT22;42072;48.044;14.416;2023-07-22T06:37:39;21.60;99.90
38359;DHT22;42072;48.044;14.416;2023-07-22T06:40:07;21.40;99.90
38359;DHT22;42072;48.044;14.416;2023-07-22T06:42:34;21.30;99.90
38359;DHT22;42072;48.044;14.416;2023-07-22T06:45:02;21.10;99.90
38359;DHT22;42072;48.044;14.416;2023-07-22T06:47:29;21.00;99.90
38359;DHT22;42072;48.044;14.416;2023-07-22T06:49:57;21.10;99.90
38359;DHT22;42072;48.044;14.416;2023-07-22T06:52:24;21.30;99.90
38359;DHT22;42072;48.044;14.416;2023-07-22T06:54:51;21.50;99.90
38359;DHT22;42072;48.044;14.416;2023-07-22T06:57:18;21.60;99.90
38359;DHT22;42072;48.044;14.416;2023-07-22T06:59:46;21.60;99.90
38359;DHT22;42072;48.044;14.416;2023-07-22T07:02:13;21.70;99.90
38359;DHT22;42072;48.044;14.416;2023-07-22T07:04:40;21.70;99.90
38359;DHT22;42072;48.044;14.416;2023-07-22T07:07:07;22.00;99.90
38359;DHT22;42072;48.044;14.416;2023-07-22T07:09:35;21.80;99.90
38359;DHT22;42072;48.044;14.416;2023-07-22T07:12:03;21.90;99.90
38359;DHT22;42072;48.044;14.416;2023-07-22T07:14:30;22.00;99.90
38359;DHT22;42072;48.044;14.416;2023-07-22T07:16:57;21.70;99.90
38359;DHT22;42072;48.044;14.416;2023-07-22T07:19:24;21.70;99.90
38359;DHT22;42072;48.044;14.416;2023-07-22T07:21:51;21.80;99.90
38359;DHT22;42072;48.044;14.416;2023-07-22T07:24:18;22.00;99.90
38359;DHT22;42072;48.044;14.416;2023-07-22T07:26:46;21.80;99.90
38359;DHT22;42072;48.044;14.416;2023-07-22T07:29:13;22.10;99.90
38359;DHT22;42072;48.044;14.416;2023-07-22T07:31:54;22.50;99.90
38359;DHT22;42072;48.044;14.416;2023-07-22T07:34:21;22.80;99.90
38359;DHT22;42072;48.044;14.416;2023-07-22T07:36:48;23.30;98.90
38359;DHT22;42072;48.044;14.416;2023-07-22T07:39:15;23.80;88.60
38359;DHT22;42072;48.044;14.416;2023-07-22T07:41:42;24.10;82.40
38359;DHT22;42072;48.044;14.416;2023-07-22T07:44:09;23.90;80.00
38359;DHT22;42072;48.044;14.416;2023-07-22T07:46:36;24.00;78.70
38359;DHT22;42072;48.044;14.416;2023-07-22T07:49:04;24.40;74.10
38359;DHT22;42072;48.044;14.416;2023-07-22T07:51:32;24.50;64.50
38359;DHT22;42072;48.044;14.416;2023-07-22T07:53:59;24.30;52.20
38359;DHT22;42072;48.044;14.416;2023-07-22T07:56:26;23.90;50.90
38359;DHT22;42072;48.044;14.416;2023-07-22T07:58:54;23.60;61.50
38359;DHT22;42072;48.044;14.416;2023-07-22T08:01:22;23.60;70.00
38359;DHT22;42072;48.044;14.416;2023-07-22T08:03:49;23.70;70.80
38359;DHT22;42072;48.044;14.416;2023-07-22T08:06:16;23.70;61.80
38359;DHT22;42072;48.044;14.416;2023-07-22T08:08:46;23.80;67.30
38359;DHT22;42072;48.044;14.416;2023-07-22T08:11:14;24.10;58.50
38359;DHT22;42072;48.044;14.416;2023-07-22T08:13:43;24.00;58.50
38359;DHT22;42072;48.044;14.416;2023-07-22T08:16:12;24.20;57.10
38359;DHT22;42072;48.044;14.416;2023-07-22T08:18:40;23.90;54.90
38359;DHT22;42072;48.044;14.416;2023-07-22T08:21:07;24.10;42.80
38359;DHT22;42072;48.044;14.416;2023-07-22T08:23:36;24.20;27.10
38359;DHT22;42072;48.044;14.416;2023-07-22T08:26:04;24.20;28.10
38359;DHT22;42072;48.044;14.416;2023-07-22T08:28:34;24.10;29.40
38359;DHT22;42072;48.044;14.416;2023-07-22T08:31:02;24.20;32.30
38359;DHT22;42072;48.044;14.416;2023-07-22T08:33:30;24.10;27.30
38359;DHT22;42072;48.044;14.416;2023-07-22T08:36:00;24.00;22.00
38359;DHT22;42072;48.044;14.416;2023-07-22T08:38:29;24.30;15.10
38359;DHT22;42072;48.044;14.416;2023-07-22T08:40:57;24.30;14.90
38359;DHT22;42072;48.044;14.416;2023-07-22T08:43:24;24.20;16.10
38359;DHT22;42072;48.044;14.416;2023-07-22T08:45:54;23.50;22.20
38359;DHT22;42072;48.044;14.416;2023-07-22T08:48:26;23.20;26.10
38359;DHT22;42072;48.044;14.416;2023-07-22T08:50:55;23.40;28.90
38359;DHT22;42072;48.044;14.416;2023-07-22T08:53:25;23.40;29.70
38359;DHT22;42072;48.044;14.416;2023-07-22T08:55:53;23.90;27.10
38359;DHT22;42072;48.044;14.416;2023-07-22T08:58:20;24.30;25.00
38359;DHT22;42072;48.044;14.416;2023-07-22T09:00:48;24.80;16.60
38359;DHT22;42072;48.044;14.416;2023-07-22T09:03:16;25.30;8.70
38359;DHT22;42072;48.044;14.416;2023-07-22T09:05:44;25.30;1.00
38359;DHT22;42072;48.044;14.416;2023-07-22T09:08:12;25.40;1.00
38359;DHT22;42072;48.044;14.416;2023-07-22T09:10:40;25.00;1.00
38359;DHT22;42072;48.044;14.416;2023-07-22T09:13:08;25.20;1.00
38359;DHT22;42072;48.044;14.416;2023-07-22T09:15:36;25.60;1.00
38359;DHT22;42072;48.044;14.416;2023-07-22T09:18:04;25.40;1.00
38359;DHT22;42072;48.044;14.416;2023-07-22T09:20:32;25.50;1.00
38359;DHT22;42072;48.044;14.416;2023-07-22T09:23:00;25.50;1.00
38359;DHT22;42072;48.044;14.416;2023-07-22T09:25:41;25.80;1.00
38359;DHT22;42072;48.044;14.416;2023-07-22T09:28:10;26.20;1.00
38359;DHT22;42072;48.044;14.416;2023-07-22T09:30:39;26.00;1.00
38359;DHT22;42072;48.044;14.416;2023-07-22T09:33:20;25.80;1.00
38359;DHT22;42072;48.044;14.416;2023-07-22T09:35:49;25.50;1.00
38359;DHT22;42072;48.044;14.416;2023-07-22T09:38:26;25.20;1.00
38359;DHT22;42072;48.044;14.416;2023-07-22T09:40:53;24.80;1.00
38359;DHT22;42072;48.044;14.416;2023-07-22T09:43:23;24.90;1.00
38359;DHT22;42072;48.044;14.416;2023-07-22T09:45:50;25.10;1.00
38359;DHT22;42072;48.044;14.416;2023-07-22T09:48:17;25.50;1.00
38359;DHT22;42072;48.044;14.416;2023-07-22T09:50:45;25.60;1.00
38359;DHT22;42072;48.044;14.416;2023-07-22T09:53:15;25.60;1.00
38359;DHT22;42072;48.044;14.416;2023-07-22T09:55:43;25.90;1.00
38359;DHT22;42072;48.044;14.416;2023-07-22T09:58:12;25.40;1.00
38359;DHT22;42072;48.044;14.416;2023-07-22T10:00:48;25.00;1.00
38359;DHT22;42072;48.044;14.416;2023-07-22T10:03:19;25.30;1.00
38359;DHT22;42072;48.044;14.416;2023-07-22T10:05:48;25.30;1.00
38359;DHT22;42072;48.044;14.416;2023-07-22T10:08:18;25.70;1.00
38359;DHT22;42072;48.044;14.416;2023-07-22T10:10:46;25.80;1.00
38359;DHT22;42072;48.044;14.416;2023-07-22T10:13:14;25.80;1.00
38359;DHT22;42072;48.044;14.416;2023-07-22T10:15:42;25.80;1.00
38359;DHT22;42072;48.044;14.416;2023-07-22T10:18:09;26.00;1.00
38359;DHT22;42072;48.044;14.416;2023-07-22T10:20:37;25.90;1.00
38359;DHT22;42072;48.044;14.416;2023-07-22T10:23:06;25.80;1.00
38359;DHT22;42072;48.044;14.416;2023-07-22T10:25:35;26.20;1.00
38359;DHT22;42072;48.044;14.416;2023-07-22T10:28:06;26.60;1.00
38359;DHT22;42072;48.044;14.416;2023-07-22T10:30:33;26.50;1.00
38359;DHT22;42072;48.044;14.416;2023-07-22T10:33:02;27.10;1.00
38359;DHT22;42072;48.044;14.416;2023-07-22T10:38:12;27.30;1.00
38359;DHT22;42072;48.044;14.416;2023-07-22T10:40:49;27.10;1.00
38359;DHT22;42072;48.044;14.416;2023-07-22T10:43:18;26.60;1.00
38359;DHT22;42072;48.044;14.416;2023-07-22T10:45:53;26.60;1.00
38359;DHT22;42072;48.044;14.416;2023-07-22T10:48:27;26.80;1.00
38359;DHT22;42072;48.044;14.416;2023-07-22T10:51:00;26.20;1.00
38359;DHT22;42072;48.044;14.416;2023-07-22T10:53:31;25.80;1.00
38359;DHT22;42072;48.044;14.416;2023-07-22T11:12:03;27.00;1.00
38359;DHT22;42072;48.044;14.416;2023-07-22T11:14:44;26.90;1.00
38359;DHT22;42072;48.044;14.416;2023-07-22T11:17:12;27.40;1.00
38359;DHT22;42072;48.044;14.416;2023-07-22T11:19:39;27.60;1.00
38359;DHT22;42072;48.044;14.416;2023-07-22T11:22:07;27.50;1.00
38359;DHT22;42072;48.044;14.416;2023-07-22T11:24:35;27.40;1.00
38359;DHT22;42072;48.044;14.416;2023-07-22T11:27:07;27.50;1.00
38359;DHT22;42072;48.044;14.416;2023-07-22T11:29:36;27.80;1.00
38359;DHT22;42072;48.044;14.416;2023-07-22T11:32:03;28.30;1.00
38359;DHT22;42072;48.044;14.416;2023-07-22T11:34:32;28.40;1.00
38359;DHT22;42072;48.044;14.416;2023-07-22T11:37:00;28.50;1.00
38359;DHT22;42072;48.044;14.416;2023-07-22T11:39:27;28.60;1.00
38359;DHT22;42072;48.044;14.416;2023-07-22T11:42:00;28.60;1.00
38359;DHT22;42072;48.044;14.416;2023-07-22T11:44:29;28.20;1.00
38359;DHT22;42072;48.044;14.416;2023-07-22T11:47:07;28.10;1.00
38359;DHT22;42072;48.044;14.416;2023-07-22T11:49:39;28.30;1.00
38359;DHT22;42072;48.044;14.416;2023-07-22T11:52:15;28.20;1.00
38359;DHT22;42072;48.044;14.416;2023-07-22T11:54:46;28.20;1.00
38359;DHT22;42072;48.044;14.416;2023-07-22T11:57:19;28.30;1.00
38359;DHT22;42072;48.044;14.416;2023-07-22T11:59:54;28.20;1.00
38359;DHT22;42072;48.044;14.416;2023-07-22T12:02:27;27.80;1.00
38359;DHT22;42072;48.044;14.416;2023-07-22T12:09:58;27.90;1.00
38359;DHT22;42072;48.044;14.416;2023-07-22T12:12:43;27.90;1.00
38359;DHT22;42072;48.044;14.416;2023-07-22T12:15:16;28.40;1.00
38359;DHT22;42072;48.044;14.416;2023-07-22T12:18:01;29.00;1.00
38359;DHT22;42072;48.044;14.416;2023-07-22T12:20:33;28.70;1.00
38359;DHT22;42072;48.044;14.416;2023-07-22T12:23:02;28.50;1.00
38359;DHT22;42072;48.044;14.416;2023-07-22T12:25:32;28.60;1.00
38359;DHT22;42072;48.044;14.416;2023-07-22T12:27:59;28.50;1.00
38359;DHT22;42072;48.044;14.416;2023-07-22T12:30:27;28.30;1.00
38359;DHT22;42072;48.044;14.416;2023-07-22T12:32:55;28.20;1.00
38359;DHT22;42072;48.044;14.416;2023-07-22T12:35:22;27.90;1.00
38359;DHT22;42072;48.044;14.416;2023-07-22T12:37:49;27.20;1.00
38359;DHT22;42072;48.044;14.416;2023-07-22T12:40:16;27.00;1.00
38359;DHT22;42072;48.044;14.416;2023-07-22T12:42:43;27.00;1.00
38359;DHT22;42072;48.044;14.416;2023-07-22T12:45:10;27.10;1.00
38359;DHT22;42072;48.044;14.416;2023-07-22T12:47:37;27.20;1.00
38359;DHT22;42072;48.044;14.416;2023-07-22T12:50:07;27.40;1.00
38359;DHT22;42072;48.044;14.416;2023-07-22T12:52:35;27.40;1.00
38359;DHT22;42072;48.044;14.416;2023-07-22T12:55:03;27.30;1.00
38359;DHT22;42072;48.044;14.416;2023-07-22T12:57:30;27.70;1.00
38359;DHT22;42072;48.044;14.416;2023-07-22T12:59:57;27.80;1.00
38359;DHT22;42072;48.044;14.416;2023-07-22T13:02:24;27.90;1.00
38359;DHT22;42072;48.044;14.416;2023-07-22T13:04:53;27.70;1.00
38359;DHT22;42072;48.044;14.416;2023-07-22T13:07:20;27.50;1.00
38359;DHT22;42072;48.044;14.416;2023-07-22T13:09:50;27.70;1.00
38359;DHT22;42072;48.044;14.416;2023-07-22T13:12:20;28.10;1.00
38359;DHT22;42072;48.044;14.416;2023-07-22T13:14:47;28.20;1.00
38359;DHT22;42072;48.044;14.416;2023-07-22T13:17:14;28.10;1.00
38359;DHT22;42072;48.044;14.416;2023-07-22T13:19:41;27.80;1.00
38359;DHT22;42072;48.044;14.416;2023-07-22T13:22:08;27.70;1.00
38359;DHT22;42072;48.044;14.416;2023-07-22T13:24:35;27.90;1.00
38359;DHT22;42072;48.044;14.416;2023-07-22T13:27:03;28.20;1.00
38359;DHT22;42072;48.044;14.416;2023-07-22T13:29:31;28.30;1.00
38359;DHT22;42072;48.044;14.416;2023-07-22T13:31:58;28.70;1.00
38359;DHT22;42072;48.044;14.416;2023-07-22T13:34:25;28.60;1.00
38359;DHT22;42072;48.044;14.416;2023-07-22T13:36:52;28.10;1.00
38359;DHT22;42072;48.044;14.416;2023-07-22T13:39:19;27.70;1.00
38359;DHT22;42072;48.044;14.416;2023-07-22T13:41:47;27.10;1.00
38359;DHT22;42072;48.044;14.416;2023-07-22T13:44:14;26.40;1.00
38359;DHT22;42072;48.044;14.416;2023-07-22T13:46:42;26.20;1.00
38359;DHT22;42072;48.044;14.416;2023-07-22T13:49:09;26.20;1.00
38359;DHT22;42072;48.044;14.416;2023-07-22T13:51:36;26.40;1.00
38359;DHT22;42072;48.044;14.416;2023-07-22T13:54:03;26.60;1.00
38359;DHT22;42072;48.044;14.416;2023-07-22T13:56:30;26.60;1.00
38359;DHT22;42072;48.044;14.416;2023-07-22T13:58:57;26.60;1.00
38359;DHT22;42072;48.044;14.416;2023-07-22T14:01:26;26.70;1.00
38359;DHT22;42072;48.044;14.416;2023-07-22T14:03:53;26.50;1.00
38359;DHT22;42072;48.044;14.416;2023-07-22T14:06:21;26.40;1.00
38359;DHT22;42072;48.044;14.416;2023-07-22T14:08:48;26.30;1.00
38359;DHT22;42072;48.044;14.416;2023-07-22T14:11:15;26.40;1.00
38359;DHT22;42072;48.044;14.416;2023-07-22T14:13:42;26.40;1.00
38359;DHT22;42072;48.044;14.416;2023-07-22T14:16:11;26.70;1.00
38359;DHT22;42072;48.044;14.416;2023-07-22T14:18:48;27.30;1.00
38359;DHT22;42072;48.044;14.416;2023-07-22T14:21:15;27.30;1.00
38359;DHT22;42072;48.044;14.416;2023-07-22T14:23:43;27.20;1.00
38359;DHT22;42072;48.044;14.416;2023-07-22T14:26:11;27.00;1.00
38359;DHT22;42072;48.044;14.416;2023-07-22T14:28:38;27.30;1.00
38359;DHT22;42072;48.044;14.416;2023-07-22T14:31:05;27.30;1.00
38359;DHT22;42072;48.044;14.416;2023-07-22T14:33:32;27.20;1.00
38359;DHT22;42072;48.044;14.416;2023-07-22T14:36:00;27.20;1.00
38359;DHT22;42072;48.044;14.416;2023-07-22T14:38:27;26.80;1.00
38359;DHT22;42072;48.044;14.416;2023-07-22T14:40:55;26.70;1.00
38359;DHT22;42072;48.044;14.416;2023-07-22T14:43:22;26.80;1.00
38359;DHT22;42072;48.044;14.416;2023-07-22T14:45:50;26.70;1.00
38359;DHT22;42072;48.044;14.416;2023-07-22T14:48:17;26.70;1.00
38359;DHT22;42072;48.044;14.416;2023-07-22T14:50:44;26.70;1.00
38359;DHT22;42072;48.044;14.416;2023-07-22T14:53:11;26.80;1.00
38359;DHT22;42072;48.044;14.416;2023-07-22T14:55:38;27.00;1.00
38359;DHT22;42072;48.044;14.416;2023-07-22T14:58:06;27.00;1.00
38359;DHT22;42072;48.044;14.416;2023-07-22T15:00:33;26.80;1.00
38359;DHT22;42072;48.044;14.416;2023-07-22T15:03:01;27.00;1.00
38359;DHT22;42072;48.044;14.416;2023-07-22T15:05:28;27.10;1.00
38359;DHT22;42072;48.044;14.416;2023-07-22T15:07:55;27.00;1.00
38359;DHT22;42072;48.044;14.416;2023-07-22T15:10:22;26.90;1.00
38359;DHT22;42072;48.044;14.416;2023-07-22T15:12:49;26.70;1.00
38359;DHT22;42072;48.044;14.416;2023-07-22T15:15:17;26.60;1.00
38359;DHT22;42072;48.044;14.416;2023-07-22T15:17:45;26.50;1.00
38359;DHT22;42072;48.044;14.416;2023-07-22T15:20:12;26.60;1.00
38359;DHT22;42072;48.044;14.416;2023-07-22T15:22:39;26.90;1.00
38359;DHT22;42072;48.044;14.416;2023-07-22T15:25:07;27.00;1.00
38359;DHT22;42072;48.044;14.416;2023-07-22T15:27:34;26.90;1.00
38359;DHT22;42072;48.044;14.416;2023-07-22T15:30:01;26.70;1.00
38359;DHT22;42072;48.044;14.416;2023-07-22T15:32:28;26.70;1.00
38359;DHT22;42072;48.044;14.416;2023-07-22T15:34:56;26.80;1.00
38359;DHT22;42072;48.044;14.416;2023-07-22T15:37:23;27.10;1.00
38359;DHT22;42072;48.044;14.416;2023-07-22T15:39:51;27.20;1.00
38359;DHT22;42072;48.044;14.416;2023-07-22T15:42:18;27.20;1.00
38359;DHT22;42072;48.044;14.416;2023-07-22T15:44:45;27.40;1.00
38359;DHT22;42072;48.044;14.416;2023-07-22T15:47:13;27.50;1.00
38359;DHT22;42072;48.044;14.416;2023-07-22T15:49:40;27.70;1.00
38359;DHT22;42072;48.044;14.416;2023-07-22T15:52:07;27.90;1.00